Las Vegas, Nevada (DRI) Weather observations

Data are for observation ending at time listed.
 Day   Time    Ave.   Ave.  Ave.  Vector   Max.   Stn.    Total    Solar   Ave.  
  of    of     Air    Rel.  Wind   Wind    Wind   Baro.  Precip.   Rad.    Soil  
Year   Day     Temp.  Hum.  Speed  Dir.    Gust   Pres.                    Temp. 
2026   (PST)    F      %     mph   deg.    mph     mb.     in.     W/m2     F   
------------------------------------------------------------------------------
 248    0:00   83.2    23    3.6   174      6.8   940.1    0.00       0    99999.0
 248    0:10   82.7    23    4.7   171      7.3   940.3    0.00       0    99999.0
 248    0:20   82.5    23    3.9   178      7.5   940.4    0.00       0    99999.0
 248    0:30   81.9    23    3.2   175      6.9   940.5    0.00       0    99999.0
 248    0:40   81.5    24    3.5   182      7.0   940.4    0.00       0    99999.0
 248    0:50   81.2    24    4.4   181      8.0   940.5    0.00       0    99999.0
 248    1:00   81.2    24    4.2   178      7.3   940.4    0.00       0    99999.0
 248    1:10   80.9    25    3.4   177      5.7   940.4    0.00       0    99999.0
 248    1:20   80.4    25    3.8   174      6.9   940.4    0.00       0    99999.0
 248    1:30   79.8    26    2.8   183      6.1   940.4    0.00       0    99999.0
 248    1:40   79.7    26    3.7   182      8.0   940.5    0.00       0    99999.0
 248    1:50   79.9    26    4.6   190     10.0   940.6    0.00       0    99999.0
 248    2:00   79.8    26    4.5   180      9.6   940.7    0.00       0    99999.0
 248    2:10   79.6    26    3.9   178      7.3   940.6    0.00       0    99999.0
 248    2:20   79.3    27    4.2   171      9.1   940.7    0.00       0    99999.0
 248    2:30   79.3    27    5.1   175     10.9   940.7    0.00       0    99999.0
 248    2:40   79.1    27    4.9   177      9.2   940.8    0.00       0    99999.0
 248    2:50   78.9    27    4.8   173     10.8   940.8    0.00       0    99999.0
 248    3:00   78.8    27    5.1   177     10.5   940.8    0.00       0    99999.0
 248    3:10   78.8    27    5.4   173     11.0   940.8    0.00       0    99999.0
 248    3:20   78.9    27    5.7   183     11.5   940.7    0.00       0    99999.0
 248    3:30   78.9    27    4.9   178     10.4   940.7    0.00       0    99999.0
 248    3:40   78.5    27    3.2   177      7.7   940.8    0.00       0    99999.0
 248    3:50   77.8    28    2.8   182      6.9   940.8    0.00       0    99999.0
 248    4:00   77.5    28    3.6   180     12.5   940.8    0.00       0    99999.0
 248    4:10   77.2    28    3.0   182      7.4   940.9    0.00       0    99999.0
 248    4:20   77.1    28    3.5   178      8.5   940.9    0.00       0    99999.0
 248    4:30   76.9    28    3.5   170      7.5   940.9    0.00       0    99999.0
 248    4:40   76.8    28    3.5   175      8.4   940.9    0.00       0    99999.0
 248    4:50   76.6    29    3.6   180      7.2   941.0    0.00       0    99999.0
 248    5:00   76.5    28    5.3   172      8.8   941.0    0.00       0    99999.0
 248    5:10   76.2    29    3.9   176      6.4   941.1    0.00       1    99999.0
 248    5:20   76.0    29    3.2   170      5.5   941.2    0.00       3    99999.0
 248    5:30   76.0    29    3.7   175      6.9   941.3    0.00       5    99999.0
 248    5:40   76.2    29    4.6   176     10.4   941.5    0.00       9    99999.0
 248    5:50   76.3    29    4.5   180      9.8   941.6    0.00      12    99999.0
 248    6:00   76.5    29    4.6   176      8.6   941.8    0.00      15    99999.0
 248    6:10   77.0    28    5.1   176      9.9   941.9    0.00      16    99999.0
 248    6:20   77.6    28    4.8   179     10.9   942.1    0.00      18    99999.0
 248    6:30   78.0    27    6.1   177     11.9   942.1    0.00      19    99999.0
 248    6:40   78.2    27    5.3   179     11.2   942.3    0.00      20    99999.0
 248    6:50   78.4    26    5.8   182     10.7   942.3    0.00      21    99999.0
 248    7:00   78.7    26    5.2   186     11.5   942.4    0.00      22    99999.0
 248    7:10   79.1    26    6.2   179     12.0   942.5    0.00      23    99999.0
 248    7:20   79.3    26    6.6   176     15.2   942.5    0.00      24    99999.0
 248    7:30   79.5    26    7.6   175     13.9   942.6    0.00      25    99999.0
 248    7:40   80.0    26    6.0   173     12.9   942.6    0.00      26    99999.0
 248    7:50   80.4    25    5.7   174     11.8   942.6    0.00      28    99999.0
 248    8:00   81.2    24    5.1   179     11.2   942.6    0.00      34    99999.0
 248    8:10   81.3    24    4.6   178     10.6   942.7    0.00      57    99999.0
 248    8:20   81.9    23    6.4   177     12.1   942.7    0.00      83    99999.0
 248    8:30   82.7    22    6.1   175     11.1   942.7    0.00     244    99999.0
 248    8:40   83.6    22    5.8   177     11.0   942.7    0.00     142    99999.0
 248    8:50   84.0    21    5.3   179     10.4   942.7    0.00     105    99999.0
 248    9:00   84.7    21    2.6   176      7.7   942.8    0.00     114    99999.0
 248    9:10   85.6    20    3.5   179     10.4   942.7    0.00     202    99999.0
 248    9:20   86.5    19    4.0   176      8.8   942.7    0.00     579    99999.0
 248    9:30   86.8    18    5.0   173     10.1   942.7    0.00     710    99999.0
 248    9:40   87.4    17    4.8   172      9.6   942.6    0.00     734    99999.0
 248    9:50   87.8    17    5.2   171     10.5   942.6    0.00     754    99999.0
 248   10:00   88.5    16    5.5   173     11.3   942.6    0.00     773    99999.0
 248   10:10   89.0    16    4.7   168      9.9   942.6    0.00     789    99999.0
 248   10:20   89.8    16    4.0   175     11.2   942.5    0.00     805    99999.0
 248   10:30   90.2    14    6.2   177     12.9   942.4    0.00     818    99999.0
 248   10:40   90.9    14    5.7   172     13.3   942.3    0.00     831    99999.0
 248   10:50   91.7    13    6.8   173     11.9   942.2    0.00     843    99999.0
 248   11:00   92.3    13    6.0   171     10.6   942.0    0.00     852    99999.0
 248   11:10   93.0    12    7.5   174     14.2   941.8    0.00     860    99999.0
 248   11:20   93.6    12    6.8   174     15.6   941.7    0.00     866    99999.0
 248   11:30   93.8    12    7.1   170     14.5   941.5    0.00     870    99999.0
 248   11:40   94.4    12    7.8   173     14.9   941.5    0.00     874    99999.0
 248   11:50   94.5    12    8.4   176     16.3   941.4    0.00     871    99999.0
 248   12:00   95.0    12    7.3   176     13.8   941.2    0.00     869    99999.0
 248   12:10   95.6    12    8.2   176     18.1   941.1    0.00     866    99999.0
 248   12:20   96.0    12    6.7   183     15.5   941.1    0.00     860    99999.0
 248   12:30   96.3    13    8.6   174     18.2   941.0    0.00     851    99999.0
 248   12:40   96.6    13    7.3   176     12.1   940.9    0.00     844    99999.0
 248   12:50   96.9    12    7.2   186     17.0   940.8    0.00     834    99999.0
 248   13:00   96.7    12    6.8   181     12.2   940.7    0.00     824    99999.0
 248   13:10   96.9    12    9.1   177     17.2   940.5    0.00     813    99999.0
 248   13:20   97.0    12    7.6   188     14.4   940.4    0.00     798    99999.0
 248   13:30   97.6    12    5.7   190     13.3   940.4    0.00     782    99999.0
 248   13:40   97.6    13    7.0   188     15.3   940.2    0.00     764    99999.0
 248   13:50   97.7    13    6.8   193     13.4   940.1    0.00     745    99999.0
 248   14:00   97.6    13    8.0   186     20.8   939.9    0.00     724    99999.0
 248   14:10   97.3    13    8.1   192     18.4   939.8    0.00     701    99999.0
 248   14:20   96.9    14    8.5   188     16.6   939.8    0.00     680    99999.0
 248   14:30   96.7    14    8.0   202     16.0   939.9    0.00     656    99999.0
 248   14:40   97.3    13    6.9   199     15.1   939.8    0.00     632    99999.0
 248   14:50   97.2    13    5.6   206     13.2   939.7    0.00     606    99999.0
 248   15:00   97.2    14    6.7   199     16.0   939.6    0.00     578    99999.0
 248   15:10   96.9    14    7.8   200     18.3   939.5    0.00     549    99999.0
 248   15:20   96.9    14    6.5   200     15.3   939.6    0.00     519    99999.0
 248   15:30   97.3    14    6.2   192     14.8   939.4    0.00     488    99999.0
 248   15:40   96.9    14    6.3   193     13.4   939.5    0.00     457    99999.0
 248   15:50   97.3    14    5.9   194     17.7   939.4    0.00     424    99999.0
 248   16:00   97.6    14    5.3   192     14.0   939.4    0.00     391    99999.0
 248   16:10   97.5    14    5.3   191     13.5   939.4    0.00     357    99999.0
 248   16:20   96.5    15    6.6   182     15.3   939.4    0.00     323    99999.0
 248   16:30   96.3    15    7.9   185     17.8   939.4    0.00     290    99999.0
 248   16:40   96.1    15    5.7   192     13.4   939.4    0.00     256    100.6
 248   16:50   96.0    16    6.8   198     16.1   939.5    0.00     222    99999.0
 248   17:00   96.0    16    6.1   193     13.2   939.4    0.00     190    99999.0
 248   17:10   95.6    16    5.0   192     12.1   939.5    0.00     159    99999.0
 248   17:20   95.5    16    5.7   195     13.5   939.6    0.00     129    99999.0
 248   17:30   94.8    17    5.2   196     15.1   939.6    0.00      84    99999.0
 248   17:40   93.9    18    5.8   186     13.2   939.6    0.00      21    99999.0
 248   17:50   93.5    18    4.9   190     12.9   939.6    0.00      11    98.9
 248   18:00   93.2    18    3.6   189      8.7   939.5    0.00       7    98.7
 248   18:10   92.9    18    4.2   188      8.2   939.6    0.00       3    99999.0
 248   18:20   92.8    18    4.2   202     11.6   939.6    0.00       1    99999.0
 248   18:30   92.6    19    4.3   193     12.5   939.6    0.00       0    99999.0
 248   18:40   92.4    19    3.0   198      6.9   939.7    0.00       0    99999.0
 248   18:50   92.4    18    4.0   205      8.8   939.8    0.00       0    99999.0
 248   19:00   92.2    18    3.5   196      9.9   939.9    0.00       0    99999.0
 248   19:10   92.0    19    3.6   193      6.6   940.0    0.00       0    97.1
 248   19:20   91.8    19    3.9   196      8.2   940.1    0.00       0    96.9
 248   19:30   91.7    19    3.9   188      8.5   940.1    0.00       0    96.6
 248   19:40   91.6    19    4.5   202     10.5   940.2    0.00       0    96.5
 248   19:50   91.4    20    4.5   184      9.4   940.3    0.00       0    96.3
 248   20:00   91.3    20    3.9   198      7.8   940.4    0.00       0    96.1
 248   20:10   91.0    20    3.4   195      7.6   940.6    0.00       0    99999.0
 248   20:20   90.9    20    3.9   183      8.9   940.6    0.00       0    99999.0
 248   20:30   90.6    20    3.1   183      6.3   940.7    0.00       0    99999.0
 248   20:40   90.2    20    3.5   190      6.8   940.7    0.00       0    99999.0
 248   20:50   89.8    20    3.5   191      7.5   940.7    0.00       0    99999.0
 248   21:00   89.9    20    4.0   188      9.4   940.7    0.00       0    99999.0
 248   21:10   89.8    20    4.1   179      7.5   940.7    0.00       0    95.0
 248   21:20   89.7    20    3.6   178      7.9   940.8    0.00       0    94.9
 248   21:30   89.3    20    2.2   168      4.8   940.8    0.00       0    94.7
 248   21:40   88.4    21    1.0   155      3.5   940.8    0.00       0    94.6
 248   21:50   87.4    22    1.7   179      3.9   940.7    0.00       0    94.4
 248   22:00   87.1    22    2.5   172      4.3   940.7    0.00       0    94.2
 248   22:10   86.8    22    1.4   165      5.0   940.8    0.00       0    94.1
 248   22:20   86.1    24    0.0   236      0.8   940.8    0.00       0    94.0
 248   22:30   85.4    24    1.2   179      2.4   940.8    0.00       0    93.8
 248   22:40   85.1    24    0.2   169      1.9   940.8    0.00       0    99999.0
 248   22:50   85.1    25    0.2    50      1.5   940.9    0.00       0    99999.0
 248   23:00   85.1    25    0.1    36      1.0   940.9    0.00       0    99999.0
 248   23:10   84.5    25    0.0   134      0.7   940.9    0.00       0    99999.0
 248   23:20   83.7    27    0.0   164      0.7   941.0    0.00       0    99999.0
 248   23:30   83.8    25    1.8   169      4.8   941.0    0.00       0    99999.0
 248   23:40   84.8    24    1.9   166      4.1   941.1    0.00       0    99999.0

Return to Las Vegas, Nevada graphs page.


Western Regional Climate Center,wrcc@dri.edu